Time;durP1;ratioP1;P1;durP2;ratioP2;P2;SDS_P1;SDS_P2;PMS_P1;PMS_P2;Temp;Humidity;BMP_temperature;BMP_pressure;BME280_temperature;BME280_humidity;BME280_pressure;Samples;Min_cycle;Max_cycle;Signal;HPM_P1;HPM_P2
2022/12/20 00:01:30;;;;;;;70.45;36.13;;;;;;;;;;10068817;28;20572;-65
2022/12/20 00:06:24;;;;;;;72.22;37.45;;;;;;;;;;10072633;28;20129;-65
2022/12/20 00:11:17;;;;;;;68.55;37.15;;;;;;;;;;10077922;28;20053;-65
2022/12/20 00:16:13;;;;;;;62.08;33.88;;;;;;;;;;10062416;28;20049;-65
2022/12/20 00:21:07;;;;;;;72.82;37.63;;;;;;;;;;10066494;28;20418;-65
2022/12/20 00:26:04;;;;;;;72.65;40.42;;;;;;;;;;10065777;28;20049;-64
2022/12/20 00:30:57;;;;;;;68.32;38.30;;;;;;;;;;10065102;28;20081;-63
2022/12/20 00:35:51;;;;;;;68.05;37.95;;;;;;;;;;10066364;28;20091;-63
2022/12/20 00:40:44;;;;;;;69.20;38.17;;;;;;;;;;10064550;28;20055;-63
2022/12/20 00:45:37;;;;;;;68.68;37.40;;;;;;;;;;10064257;28;20478;-63
2022/12/20 00:50:31;;;;;;;66.82;37.90;;;;;;;;;;10066412;28;20132;-63
2022/12/20 00:55:24;;;;;;;67.55;37.53;;;;;;;;;;10065265;28;20046;-63
2022/12/20 01:00:20;;;;;;;69.47;38.55;;;;;;;;;;10065144;28;20073;-66
2022/12/20 01:05:13;;;;;;;77.18;39.33;;;;;;;;;;10063765;28;20058;-63
2022/12/20 01:10:08;;;;;;;72.68;36.13;;;;;;;;;;10064467;28;20049;-63
2022/12/20 01:15:02;;;;;;;67.70;37.25;;;;;;;;;;10065993;28;20088;-63
2022/12/20 01:19:55;;;;;;;74.25;38.13;;;;;;;;;;10072513;28;20072;-64
2022/12/20 01:24:49;;;;;;;69.80;38.90;;;;;;;;;;10071766;28;20275;-63
2022/12/20 01:29:43;;;;;;;67.55;36.85;;;;;;;;;;10070033;28;20053;-63
2022/12/20 01:34:36;;;;;;;67.53;37.08;;;;;;;;;;10070563;28;20136;-64
2022/12/20 01:39:29;;;;;;;69.00;37.13;;;;;;;;;;10071223;28;20041;-63
2022/12/20 01:44:22;;;;;;;66.40;39.08;;;;;;;;;;10069845;28;20076;-63
2022/12/20 01:49:35;;;;;;;69.00;37.03;;;;;;;;;;10071312;28;20057;-63
2022/12/20 01:54:35;;;;;;;63.10;33.53;;;;;;;;;;10059434;28;20498;-65
2022/12/20 01:59:30;;;;;;;63.72;37.95;;;;;;;;;;10070741;28;20045;-65
2022/12/20 02:04:23;;;;;;;63.00;34.55;;;;;;;;;;10070729;28;20426;-65
2022/12/20 02:09:17;;;;;;;72.65;38.58;;;;;;;;;;10069609;28;20110;-65
2022/12/20 02:14:15;;;;;;;59.78;36.25;;;;;;;;;;10070612;28;20136;-63
2022/12/20 02:19:11;;;;;;;;;;;;;;;;;;10070939;28;20430;-63
2022/12/20 02:24:22;;;;;;;60.72;35.00;;;;;;;;;;10068680;28;19925;-63
2022/12/20 02:29:23;;;;;;;67.53;35.55;;;;;;;;;;10069146;28;20442;-65
2022/12/20 02:34:23;;;;;;;56.72;32.58;;;;;;;;;;10068266;28;20049;-65
2022/12/20 02:39:16;;;;;;;69.03;36.78;;;;;;;;;;10051887;28;20056;-65
2022/12/20 02:49:28;;;;;;;63.47;35.70;;;;;;;;;;10082103;28;20052;-65
2022/12/20 02:54:21;;;;;;;61.17;35.42;;;;;;;;;;10068097;28;20053;-65
2022/12/20 02:59:17;;;;;;;70.40;35.42;;;;;;;;;;10067401;28;20103;-64
2022/12/20 03:04:11;;;;;;;65.97;36.58;;;;;;;;;;10068909;28;20041;-65
2022/12/20 03:09:05;;;;;;;60.70;36.22;;;;;;;;;;10067812;28;20037;-65
2022/12/20 03:14:02;;;;;;;65.65;35.42;;;;;;;;;;10081836;28;20057;-65
2022/12/20 03:18:56;;;;;;;74.80;37.47;;;;;;;;;;10067772;28;20103;-65
2022/12/20 03:23:50;;;;;;;67.63;38.70;;;;;;;;;;10068017;28;20052;-65
2022/12/20 03:28:43;;;;;;;62.72;35.30;;;;;;;;;;10068207;28;20073;-65
2022/12/20 03:33:40;;;;;;;75.72;39.15;;;;;;;;;;10066537;28;20186;-65
2022/12/20 03:38:33;;;;;;;64.75;36.70;;;;;;;;;;10065374;28;20056;-64
2022/12/20 03:43:29;;;;;;;67.57;35.15;;;;;;;;;;10066384;28;20410;-63
2022/12/20 03:48:23;;;;;;;70.85;37.15;;;;;;;;;;10066706;28;20049;-63
2022/12/20 03:53:16;;;;;;;62.05;39.70;;;;;;;;;;10066759;28;20395;-64
2022/12/20 03:58:10;;;;;;;70.47;38.10;;;;;;;;;;10065262;28;20077;-64
2022/12/20 04:03:05;;;;;;;67.03;36.28;;;;;;;;;;10065488;28;20487;-64
2022/12/20 04:07:58;;;;;;;70.68;37.65;;;;;;;;;;10055131;28;20052;-64
2022/12/20 04:12:52;;;;;;;69.00;38.00;;;;;;;;;;10065470;28;20088;-63
2022/12/20 04:17:46;;;;;;;67.78;39.25;;;;;;;;;;10065499;28;20057;-64
2022/12/20 04:22:40;;;;;;;84.32;40.05;;;;;;;;;;10065215;28;20045;-64
2022/12/20 04:27:34;;;;;;;75.53;41.42;;;;;;;;;;10064942;28;20567;-64
2022/12/20 04:32:31;;;;;;;79.32;41.15;;;;;;;;;;10065343;28;20136;-64
2022/12/20 04:37:26;;;;;;;77.13;37.47;;;;;;;;;;10065893;28;20052;-63
2022/12/20 04:42:21;;;;;;;65.10;41.13;;;;;;;;;;10067319;28;20050;-64
2022/12/20 04:47:15;;;;;;;68.75;38.65;;;;;;;;;;10064444;28;20425;-64
2022/12/20 04:57:19;;;;;;;78.78;43.33;;;;;;;;;;10072057;28;20057;-64
2022/12/20 05:02:13;;;;;;;68.28;38.70;;;;;;;;;;10071576;28;20057;-64
2022/12/20 05:07:32;;;;;;;74.07;41.00;;;;;;;;;;10070877;28;20529;-64
2022/12/20 05:12:26;;;;;;;71.28;39.90;;;;;;;;;;10071339;28;20049;-64
2022/12/20 05:17:23;;;;;;;77.25;39.10;;;;;;;;;;10068489;28;20080;-63
2022/12/20 05:27:34;;;;;;;70.40;39.97;;;;;;;;;;10078675;28;20111;-64
2022/12/20 05:32:28;;;;;;;72.30;41.50;;;;;;;;;;10070973;28;20445;-64
2022/12/20 05:37:21;;;;;;;76.03;43.53;;;;;;;;;;10070708;28;20047;-64
2022/12/20 05:42:14;;;;;;;78.43;39.03;;;;;;;;;;10071851;28;20095;-63
2022/12/20 05:47:08;;;;;;;73.70;43.80;;;;;;;;;;10069762;28;20053;-64
2022/12/20 05:52:04;;;;;;;69.45;40.08;;;;;;;;;;10070396;28;20045;-64
2022/12/20 05:56:59;;;;;;;82.57;40.53;;;;;;;;;;10070385;28;20394;-63
2022/12/20 06:02:00;;;;;;;70.68;41.15;;;;;;;;;;10077945;28;20088;-64
2022/12/20 06:06:54;;;;;;;86.88;38.42;;;;;;;;;;10068952;28;20049;-64
2022/12/20 06:11:48;;;;;;;76.00;39.65;;;;;;;;;;10077440;28;20048;-63
2022/12/20 06:16:41;;;;;;;72.75;44.20;;;;;;;;;;10085143;28;20561;-63
2022/12/20 06:21:37;;;;;;;68.32;42.40;;;;;;;;;;10069367;28;20045;-63
2022/12/20 06:26:35;;;;;;;67.78;40.38;;;;;;;;;;10064340;28;20049;-62
2022/12/20 06:31:31;;;;;;;69.57;40.10;;;;;;;;;;10066203;28;20050;-62
2022/12/20 06:36:24;;;;;;;75.68;43.97;;;;;;;;;;10067540;28;20582;-64
2022/12/20 06:41:18;;;;;;;74.05;42.15;;;;;;;;;;10068181;28;20542;-65
2022/12/20 06:46:12;;;;;;;69.25;39.10;;;;;;;;;;10068144;28;20129;-64
2022/12/20 06:51:04;;;;;;;70.05;43.42;;;;;;;;;;10068706;28;20064;-64
2022/12/20 06:55:58;;;;;;;66.60;40.38;;;;;;;;;;10067797;28;20043;-65
2022/12/20 07:00:51;;;;;;;73.35;43.10;;;;;;;;;;10067120;28;20049;-65
2022/12/20 07:05:45;;;;;;;74.18;44.22;;;;;;;;;;10067773;28;20065;-67
2022/12/20 07:10:39;;;;;;;76.10;41.22;;;;;;;;;;10066282;28;20072;-66
2022/12/20 07:15:33;;;;;;;63.22;41.50;;;;;;;;;;10067435;28;20128;-66
2022/12/20 07:20:26;;;;;;;69.55;39.30;;;;;;;;;;10067388;28;20391;-66
2022/12/20 07:25:19;;;;;;;77.90;41.25;;;;;;;;;;10062019;28;20453;-67
2022/12/20 07:30:13;;;;;;;71.30;41.08;;;;;;;;;;10061135;28;20136;-65
2022/12/20 07:35:09;;;;;;;69.30;41.42;;;;;;;;;;10063265;28;20045;-65
2022/12/20 07:40:02;;;;;;;72.25;41.42;;;;;;;;;;10062413;28;20076;-64
2022/12/20 07:44:56;;;;;;;59.90;37.55;;;;;;;;;;10066103;28;20103;-65
2022/12/20 07:49:50;;;;;;;67.20;38.28;;;;;;;;;;10064129;28;20490;-65
2022/12/20 07:54:48;;;;;;;71.78;39.58;;;;;;;;;;10064273;28;20049;-66
2022/12/20 07:59:46;;;;;;;66.40;40.58;;;;;;;;;;10049982;28;20079;-74
2022/12/20 08:04:40;;;;;;;56.85;35.75;;;;;;;;;;10065934;28;20041;-64
2022/12/20 08:09:36;;;;;;;66.00;41.67;;;;;;;;;;10064563;28;20053;-66
2022/12/20 08:14:29;;;;;;;73.20;44.65;;;;;;;;;;10064233;28;20506;-67
2022/12/20 08:19:24;;;;;;;79.10;44.40;;;;;;;;;;10063397;28;20069;-67
2022/12/20 08:24:24;;;;;;;88.38;46.55;;;;;;;;;;10066508;28;20050;-65
2022/12/20 08:29:17;;;;;;;88.70;46.58;;;;;;;;;;10073596;28;20119;-65
2022/12/20 08:34:11;;;;;;;91.05;46.92;;;;;;;;;;10070302;28;20073;-65
2022/12/20 08:39:05;;;;;;;99.28;51.38;;;;;;;;;;10069952;28;20049;-66
2022/12/20 08:43:58;;;;;;;95.93;48.92;;;;;;;;;;10069309;28;20045;-65
2022/12/20 08:48:52;;;;;;;96.95;49.00;;;;;;;;;;10071941;28;20049;-66
2022/12/20 08:53:45;;;;;;;90.13;49.15;;;;;;;;;;10072763;28;20076;-67
2022/12/20 08:58:40;;;;;;;88.28;47.45;;;;;;;;;;10071996;28;20051;-66
2022/12/20 09:03:33;;;;;;;88.88;48.17;;;;;;;;;;10072133;28;20469;-66
2022/12/20 09:08:26;;;;;;;91.85;50.28;;;;;;;;;;10071755;28;20041;-65
2022/12/20 09:13:21;;;;;;;88.35;46.90;;;;;;;;;;10070336;28;20403;-65
2022/12/20 09:18:14;;;;;;;75.88;45.28;;;;;;;;;;10070414;28;20057;-66
2022/12/20 09:23:08;;;;;;;71.55;42.95;;;;;;;;;;10070444;28;20451;-67
2022/12/20 09:28:04;;;;;;;77.78;38.50;;;;;;;;;;10069561;28;20065;-68
2022/12/20 09:32:58;;;;;;;71.35;43.42;;;;;;;;;;10070779;28;20050;-65
2022/12/20 09:38:03;;;;;;;77.25;41.00;;;;;;;;;;10064851;28;20107;-71
2022/12/20 09:42:56;;;;;;;68.22;39.80;;;;;;;;;;10064075;28;20103;-68
2022/12/20 09:47:51;;;;;;;53.28;32.78;;;;;;;;;;10065257;28;20386;-66
2022/12/20 09:53:21;;;;;;;55.58;32.17;;;;;;;;;;10063877;28;20045;-66
2022/12/20 09:58:25;;;;;;;58.58;34.67;;;;;;;;;;10061311;28;20450;-66
2022/12/20 10:03:30;;;;;;;54.03;34.10;;;;;;;;;;10060169;28;20057;-65
2022/12/20 10:08:45;;;;;;;51.67;30.70;;;;;;;;;;10074836;28;20046;-66
2022/12/20 10:13:47;;;;;;;56.17;32.75;;;;;;;;;;10064879;28;20064;-66
2022/12/20 10:19:17;;;;;;;50.55;33.75;;;;;;;;;;10067527;28;20403;-65
2022/12/20 10:24:18;;;;;;;44.70;30.13;;;;;;;;;;10066431;28;20570;-65
2022/12/20 10:29:11;;;;;;;53.85;34.08;;;;;;;;;;9983480;28;2347781;-65
2022/12/20 10:34:04;;;;;;;54.50;34.05;;;;;;;;;;10068585;28;20073;-65
2022/12/20 10:39:00;;;;;;;58.30;36.90;;;;;;;;;;10063755;28;20108;-65
2022/12/20 10:43:59;;;;;;;55.03;35.60;;;;;;;;;;10065260;28;20406;-66
2022/12/20 10:48:53;;;;;;;57.00;35.45;;;;;;;;;;10062766;28;20069;-66
2022/12/20 10:53:53;;;;;;;65.63;36.92;;;;;;;;;;10065217;28;20049;-65
2022/12/20 10:59:16;;;;;;;55.47;33.05;;;;;;;;;;10066398;28;20135;-64
2022/12/20 11:04:30;;;;;;;59.67;34.28;;;;;;;;;;10060475;28;20033;-64
2022/12/20 11:09:28;;;;;;;51.20;31.83;;;;;;;;;;10065377;28;20073;-63
2022/12/20 11:14:21;;;;;;;56.70;34.92;;;;;;;;;;10067069;28;20053;-63
2022/12/20 11:19:20;;;;;;;50.00;30.35;;;;;;;;;;10074899;28;20049;-63
2022/12/20 11:24:34;;;;;;;;;;;;;;;;;;10075777;28;20137;-65
2022/12/20 11:29:55;;;;;;;49.50;30.27;;;;;;;;;;10079118;28;20480;-65
2022/12/20 11:35:16;;;;;;;52.80;34.33;;;;;;;;;;10040428;28;20099;-63
2022/12/20 11:40:11;;;;;;;53.75;32.67;;;;;;;;;;10071470;28;20053;-64
2022/12/20 11:45:28;;;;;;;51.90;33.38;;;;;;;;;;10074568;28;20107;-63
2022/12/20 11:50:42;;;;;;;57.63;37.80;;;;;;;;;;10084183;28;20061;-63
2022/12/20 11:55:40;;;;;;;58.42;40.38;;;;;;;;;;10082322;28;20052;-63
2022/12/20 12:00:35;;;;;;;56.42;36.08;;;;;;;;;;10082567;28;20052;-63
2022/12/20 12:05:29;;;;;;;52.78;33.85;;;;;;;;;;10076151;28;20045;-63
2022/12/20 12:10:36;;;;;;;61.08;42.35;;;;;;;;;;10082025;28;20405;-63
2022/12/20 12:15:37;;;;;;;67.70;45.70;;;;;;;;;;10062898;28;20051;-63
2022/12/20 12:20:55;;;;;;;67.97;43.30;;;;;;;;;;10064947;28;20049;-63
2022/12/20 12:25:49;;;;;;;64.57;43.72;;;;;;;;;;10076234;28;20176;-63
2022/12/20 12:31:09;;;;;;;69.65;45.17;;;;;;;;;;10070083;28;20418;-63
2022/12/20 12:36:32;;;;;;;68.95;48.58;;;;;;;;;;10085423;28;20045;-63
2022/12/20 12:41:47;;;;;;;64.07;46.63;;;;;;;;;;10071776;28;20452;-64
2022/12/20 12:46:42;;;;;;;65.65;46.83;;;;;;;;;;10062588;28;20406;-64
2022/12/20 12:51:38;;;;;;;66.72;46.80;;;;;;;;;;10064865;28;20623;-64
2022/12/20 12:56:38;;;;;;;68.68;49.60;;;;;;;;;;10060384;28;20069;-64
2022/12/20 13:01:42;;;;;;;67.60;47.80;;;;;;;;;;10074627;28;20077;-65
2022/12/20 13:06:36;;;;;;;69.45;47.60;;;;;;;;;;10052421;28;20064;-64
2022/12/20 13:11:32;;;;;;;64.53;47.17;;;;;;;;;;10066931;28;20040;-65
2022/12/20 13:16:28;;;;;;;66.88;47.63;;;;;;;;;;10066771;28;20041;-64
2022/12/20 13:22:16;;;;;;;64.15;48.33;;;;;;;;;;10072257;28;20053;-64
2022/12/20 13:27:23;;;;;;;63.75;48.40;;;;;;;;;;10056526;28;20169;-65
2022/12/20 13:32:46;;;;;;;71.95;52.72;;;;;;;;;;10069729;28;20080;-65
2022/12/20 13:37:59;;;;;;;68.15;49.25;;;;;;;;;;10067793;28;20484;-63
2022/12/20 13:42:54;;;;;;;66.40;47.30;;;;;;;;;;10062035;28;20049;-64
2022/12/20 13:47:50;;;;;;;71.07;51.25;;;;;;;;;;10067696;28;20076;-64
2022/12/20 13:52:44;;;;;;;63.63;46.95;;;;;;;;;;10062130;28;20136;-64
2022/12/20 13:57:45;;;;;;;63.05;46.30;;;;;;;;;;10066198;28;20053;-64
2022/12/20 14:02:41;;;;;;;61.47;44.58;;;;;;;;;;10070031;28;20063;-64
2022/12/20 14:07:35;;;;;;;63.45;44.20;;;;;;;;;;10067978;28;20049;-64
2022/12/20 14:12:30;;;;;;;61.35;44.63;;;;;;;;;;10067738;28;20453;-64
2022/12/20 14:17:30;;;;;;;59.40;45.53;;;;;;;;;;10067770;28;20048;-64
2022/12/20 14:22:24;;;;;;;60.00;44.80;;;;;;;;;;10066645;28;20050;-64
2022/12/20 14:27:18;;;;;;;63.20;44.58;;;;;;;;;;10067769;28;20080;-64
2022/12/20 14:32:18;;;;;;;59.42;45.35;;;;;;;;;;10068070;28;20068;-64
2022/12/20 14:37:26;;;;;;;57.92;44.10;;;;;;;;;;10067626;28;20049;-63
2022/12/20 14:42:19;;;;;;;56.78;40.80;;;;;;;;;;10067395;28;20417;-63
2022/12/20 14:47:25;;;;;;;59.00;46.35;;;;;;;;;;10066479;28;20099;-63
2022/12/20 14:52:34;;;;;;;60.13;46.85;;;;;;;;;;10066405;28;20057;-63
2022/12/20 14:57:31;;;;;;;61.47;45.58;;;;;;;;;;10066980;28;20061;-63
2022/12/20 15:02:41;;;;;;;57.92;42.40;;;;;;;;;;10066413;28;20080;-63
2022/12/20 15:07:34;;;;;;;52.97;39.80;;;;;;;;;;10066419;28;20072;-63
2022/12/20 15:12:28;;;;;;;55.75;42.22;;;;;;;;;;10048837;28;20180;-64
2022/12/20 15:17:21;;;;;;;53.28;41.78;;;;;;;;;;10065879;28;20057;-63
2022/12/20 15:22:15;;;;;;;59.15;43.78;;;;;;;;;;10066335;28;20060;-63
2022/12/20 15:27:13;;;;;;;56.63;41.55;;;;;;;;;;10066411;28;20394;-63
2022/12/20 15:32:39;;;;;;;55.58;42.45;;;;;;;;;;10066012;28;20053;-63
2022/12/20 15:37:47;;;;;;;57.60;42.22;;;;;;;;;;10058501;28;20053;-63
2022/12/20 15:42:43;;;;;;;53.17;42.22;;;;;;;;;;10065153;28;20067;-63
2022/12/20 15:47:37;;;;;;;53.10;40.60;;;;;;;;;;10064509;28;20049;-63
2022/12/20 15:52:30;;;;;;;54.25;40.72;;;;;;;;;;10064421;28;20045;-64
2022/12/20 15:57:23;;;;;;;55.60;40.70;;;;;;;;;;10064345;28;20053;-64
2022/12/20 16:02:21;;;;;;;52.17;40.72;;;;;;;;;;10063057;28;20053;-64
2022/12/20 16:07:15;;;;;;;55.58;41.80;;;;;;;;;;10057537;28;20045;-64
2022/12/20 16:12:34;;;;;;;54.90;40.00;;;;;;;;;;10073377;28;20077;-63
2022/12/20 16:17:27;;;;;;;51.17;40.50;;;;;;;;;;10074292;28;20123;-65
2022/12/20 16:22:21;;;;;;;50.60;39.17;;;;;;;;;;10075702;28;20056;-64
2022/12/20 16:27:15;;;;;;;54.75;43.85;;;;;;;;;;10071200;28;20049;-64
2022/12/20 16:32:17;;;;;;;59.28;44.00;;;;;;;;;;10068502;28;20065;-64
2022/12/20 16:37:10;;;;;;;58.05;42.25;;;;;;;;;;10064757;28;20077;-64
2022/12/20 16:42:15;;;;;;;54.75;42.08;;;;;;;;;;10069382;28;20552;-64
2022/12/20 16:47:08;;;;;;;58.03;42.80;;;;;;;;;;10077657;28;20056;-64
2022/12/20 16:52:02;;;;;;;58.20;44.65;;;;;;;;;;10079995;28;20041;-63
2022/12/20 16:56:56;;;;;;;55.78;42.10;;;;;;;;;;10082023;28;20041;-64
2022/12/20 17:01:52;;;;;;;54.67;43.08;;;;;;;;;;10071341;28;20053;-64
2022/12/20 17:06:45;;;;;;;55.88;45.03;;;;;;;;;;10072413;28;20049;-65
2022/12/20 17:11:39;;;;;;;59.88;44.08;;;;;;;;;;10080342;28;20449;-64
2022/12/20 17:16:33;;;;;;;57.60;43.50;;;;;;;;;;10076567;28;20434;-63
2022/12/20 17:21:35;;;;;;;60.58;43.00;;;;;;;;;;10071452;28;20091;-63
2022/12/20 17:26:45;;;;;;;59.88;41.35;;;;;;;;;;10086310;28;20379;-64
2022/12/20 17:31:41;;;;;;;52.30;42.53;;;;;;;;;;10087905;28;20056;-62
2022/12/20 17:36:35;;;;;;;59.90;44.80;;;;;;;;;;10077065;28;20124;-63
2022/12/20 17:41:33;;;;;;;54.90;45.72;;;;;;;;;;10074588;28;20386;-63
2022/12/20 17:46:27;;;;;;;61.67;44.95;;;;;;;;;;10072935;28;20057;-63
2022/12/20 17:51:26;;;;;;;61.42;47.08;;;;;;;;;;10083593;28;20049;-62
2022/12/20 17:56:21;;;;;;;103.97;78.82;;;;;;;;;;10081808;28;20057;-62
2022/12/20 18:01:34;;;;;;;56.65;42.17;;;;;;;;;;10075243;28;20060;-63
2022/12/20 18:06:30;;;;;;;63.55;51.83;;;;;;;;;;10069955;28;20049;-64
2022/12/20 18:11:25;;;;;;;53.88;41.50;;;;;;;;;;10084102;28;20057;-64
2022/12/20 18:16:21;;;;;;;53.60;42.67;;;;;;;;;;10082259;28;20045;-63
2022/12/20 18:21:16;;;;;;;56.33;41.85;;;;;;;;;;10075060;28;20128;-66
2022/12/20 18:26:12;;;;;;;56.97;44.60;;;;;;;;;;10078786;28;20506;-63
2022/12/20 18:31:07;;;;;;;56.95;43.15;;;;;;;;;;10071618;28;20060;-63
2022/12/20 18:36:08;;;;;;;68.20;53.47;;;;;;;;;;10077162;28;20056;-63
2022/12/20 18:41:04;;;;;;;58.25;43.35;;;;;;;;;;10076339;28;20045;-64
2022/12/20 18:46:08;;;;;;;58.10;43.42;;;;;;;;;;10069594;28;20049;-64
2022/12/20 18:51:10;;;;;;;56.75;42.92;;;;;;;;;;10069204;28;20056;-65
2022/12/20 18:56:05;;;;;;;61.88;43.33;;;;;;;;;;10076257;28;20053;-65
2022/12/20 19:01:06;;;;;;;57.03;44.00;;;;;;;;;;10074751;28;20132;-64
2022/12/20 19:05:59;;;;;;;62.10;47.53;;;;;;;;;;10079653;28;20060;-64
2022/12/20 19:10:52;;;;;;;60.00;46.95;;;;;;;;;;10066437;28;20052;-64
2022/12/20 19:15:46;;;;;;;62.88;46.15;;;;;;;;;;10065535;28;20449;-64
2022/12/20 19:20:39;;;;;;;58.88;42.80;;;;;;;;;;10067125;28;20056;-64
2022/12/20 19:25:32;;;;;;;57.60;43.05;;;;;;;;;;10065904;28;20556;-64
2022/12/20 19:30:26;;;;;;;62.05;45.65;;;;;;;;;;10064044;28;20053;-64
2022/12/20 19:35:19;;;;;;;59.72;46.30;;;;;;;;;;10065247;28;20041;-64
2022/12/20 19:40:31;;;;;;;58.50;44.17;;;;;;;;;;10064634;28;20038;-64
2022/12/20 19:45:26;;;;;;;54.95;44.15;;;;;;;;;;10065302;28;20049;-63
2022/12/20 19:50:18;;;;;;;56.38;42.83;;;;;;;;;;10064113;28;20124;-64
2022/12/20 19:55:12;;;;;;;58.72;44.80;;;;;;;;;;10064903;28;20053;-64
2022/12/20 20:00:08;;;;;;;60.90;44.35;;;;;;;;;;10066320;28;20041;-63
2022/12/20 20:05:05;;;;;;;59.43;45.07;;;;;;;;;;10063161;28;20540;-65
2022/12/20 20:10:09;;;;;;;56.75;43.53;;;;;;;;;;10065400;28;20053;-65
2022/12/20 20:15:03;;;;;;;58.50;42.83;;;;;;;;;;10064544;28;20049;-65
2022/12/20 20:19:56;;;;;;;56.33;44.38;;;;;;;;;;10065696;28;20057;-64
2022/12/20 20:24:50;;;;;;;59.58;43.45;;;;;;;;;;10073493;28;20111;-65
2022/12/20 20:29:44;;;;;;;61.13;45.25;;;;;;;;;;10071946;28;20054;-64
2022/12/20 20:34:37;;;;;;;60.80;45.05;;;;;;;;;;10072645;28;20045;-65
2022/12/20 20:39:31;;;;;;;61.38;45.22;;;;;;;;;;10073176;28;20124;-66
2022/12/20 20:44:24;;;;;;;68.63;48.45;;;;;;;;;;10072103;28;20056;-64
2022/12/20 20:49:18;;;;;;;62.60;47.38;;;;;;;;;;10072307;28;20064;-65
2022/12/20 20:54:12;;;;;;;64.53;48.63;;;;;;;;;;10067441;28;20771;-65
2022/12/20 20:59:05;;;;;;;64.68;49.05;;;;;;;;;;10072520;28;20068;-66
2022/12/20 21:04:07;;;;;;;63.15;49.65;;;;;;;;;;10072045;28;20053;-66
2022/12/20 21:09:02;;;;;;;53.50;42.65;;;;;;;;;;10071235;28;20057;-65
2022/12/20 21:13:55;;;;;;;60.28;45.92;;;;;;;;;;10069164;28;20049;-65
2022/12/20 21:18:56;;;;;;;54.10;41.75;;;;;;;;;;10075858;28;21972;-64
2022/12/20 21:23:50;;;;;;;54.38;41.03;;;;;;;;;;10077640;28;20068;-64
2022/12/20 21:28:42;;;;;;;58.67;43.90;;;;;;;;;;10074294;28;20572;-63
2022/12/20 21:33:36;;;;;;;62.50;46.05;;;;;;;;;;10073117;28;20053;-67
2022/12/20 21:38:34;;;;;;;64.45;48.03;;;;;;;;;;10073839;28;20049;-67
2022/12/20 21:43:32;;;;;;;59.42;43.38;;;;;;;;;;10074702;28;20052;-69
2022/12/20 21:48:28;;;;;;;62.42;46.70;;;;;;;;;;10063604;28;20103;-68
2022/12/20 21:53:23;;;;;;;61.90;44.72;;;;;;;;;;10077053;28;20050;-68
2022/12/20 21:58:17;;;;;;;66.78;46.22;;;;;;;;;;10078465;28;20069;-65
2022/12/20 22:03:10;;;;;;;67.55;48.85;;;;;;;;;;10079225;28;20460;-64
2022/12/20 22:08:03;;;;;;;61.08;44.30;;;;;;;;;;10073266;28;20053;-64
2022/12/20 22:12:56;;;;;;;64.60;48.28;;;;;;;;;;10074510;28;20494;-64
2022/12/20 22:17:49;;;;;;;63.22;47.35;;;;;;;;;;10071446;28;20079;-65
2022/12/20 22:22:43;;;;;;;61.63;47.95;;;;;;;;;;10073645;28;20072;-64
2022/12/20 22:27:36;;;;;;;58.20;44.25;;;;;;;;;;10071182;28;20053;-67
2022/12/20 22:32:31;;;;;;;55.35;42.38;;;;;;;;;;10075714;28;20125;-63
2022/12/20 22:37:24;;;;;;;66.40;47.63;;;;;;;;;;10079995;28;20057;-64
2022/12/20 22:42:18;;;;;;;60.33;46.38;;;;;;;;;;10075267;28;20045;-64
2022/12/20 22:47:11;;;;;;;63.47;46.13;;;;;;;;;;10079156;28;20457;-64
2022/12/20 22:52:04;;;;;;;59.08;45.20;;;;;;;;;;10078581;28;20049;-63
2022/12/20 22:56:59;;;;;;;61.95;43.85;;;;;;;;;;10071348;28;20728;-63
2022/12/20 23:01:53;;;;;;;60.25;44.88;;;;;;;;;;10074892;28;20045;-63
2022/12/20 23:06:46;;;;;;;57.00;42.03;;;;;;;;;;10079692;28;20128;-63
2022/12/20 23:16:52;;;;;;;57.95;43.22;;;;;;;;;;10070783;28;20061;-63
2022/12/20 23:26:58;;;;;;;57.63;44.47;;;;;;;;;;10065061;28;20045;-64
2022/12/20 23:31:51;;;;;;;57.78;44.00;;;;;;;;;;10074822;28;20053;-64
2022/12/20 23:36:45;;;;;;;55.08;41.65;;;;;;;;;;10068606;28;20060;-63
2022/12/20 23:41:39;;;;;;;55.75;42.22;;;;;;;;;;10079367;28;20146;-63
2022/12/20 23:46:32;;;;;;;59.00;42.03;;;;;;;;;;10082187;28;20132;-63
2022/12/20 23:51:25;;;;;;;57.08;43.03;;;;;;;;;;10085797;28;20045;-63
2022/12/20 23:56:20;;;;;;;55.95;41.17;;;;;;;;;;10068946;28;20425;-63
